Time;durP1;ratioP1;P1;durP2;ratioP2;P2;SDS_P1;SDS_P2;PMS_P1;PMS_P2;Temp;Humidity;BMP_temperature;BMP_pressure;BME280_temperature;BME280_humidity;BME280_pressure;Samples;Min_cycle;Max_cycle;Signal;HPM_P1;HPM_P2
2023/06/08 00:01:45;;;;;;;8.43;3.58;;;;;;;19.91;52.95;95235.22;5030119;28;20036;-81
2023/06/08 00:04:12;;;;;;;9.52;3.30;;;;;;;19.47;52.79;95166.75;5026671;28;20060;-81
2023/06/08 00:06:40;;;;;;;7.30;3.40;;;;;;;19.90;53.13;95252.50;5020853;28;20558;-81
2023/06/08 00:09:06;;;;;;;5.47;3.55;;;;;;;20.17;52.92;95272.66;5029759;28;20630;-81
2023/06/08 00:11:32;;;;;;;6.05;3.33;;;;;;;20.03;52.70;95264.09;5021472;28;20100;-81
2023/06/08 00:13:59;;;;;;;7.07;3.00;;;;;;;20.14;52.52;95288.72;5030464;28;20049;-81
2023/06/08 00:16:24;;;;;;;6.63;3.33;;;;;;;20.08;52.67;95290.00;5031351;28;20466;-81
2023/06/08 00:18:56;;;;;;;10.70;3.00;;;;;;;20.12;52.84;95289.03;5031632;28;20121;-81
2023/06/08 00:21:23;;;;;;;6.75;3.38;;;;;;;19.74;53.09;95250.75;5029240;28;20033;-81
2023/06/08 00:23:49;;;;;;;6.90;3.08;;;;;;;19.77;53.02;95248.16;5021108;28;20029;-81
2023/06/08 00:26:15;;;;;;;5.70;2.85;;;;;;;19.79;52.84;95245.94;5034795;28;20025;-81
2023/06/08 00:28:40;;;;;;;3.75;2.60;;;;;;;19.98;52.82;95285.84;5026500;28;20116;-80
2023/06/08 00:31:06;;;;;;;7.28;3.25;;;;;;;19.60;53.03;95227.59;5026796;28;20033;-81
2023/06/08 00:33:31;;;;;;;5.28;2.92;;;;;;;19.88;53.13;95284.31;5034247;28;20040;-81
2023/06/08 00:35:58;;;;;;;12.80;3.22;;;;;;;19.92;52.97;95282.53;5033002;28;20029;-81
2023/06/08 00:38:24;;;;;;;10.10;2.40;;;;;;;19.85;53.21;95286.88;5033067;28;20025;-81
2023/06/08 00:40:49;;;;;;;6.72;3.72;;;;;;;19.75;53.39;95287.28;5031637;28;20029;-81
2023/06/08 00:43:15;;;;;;;11.15;3.40;;;;;;;19.54;53.45;95249.59;5020645;28;20540;-81
2023/06/08 00:45:40;;;;;;;7.75;3.50;;;;;;;19.72;53.66;95283.34;5029656;28;20045;-81
2023/06/08 00:48:06;;;;;;;4.85;2.97;;;;;;;19.03;53.63;95172.75;5033242;28;20038;-81
2023/06/08 00:50:32;;;;;;;10.00;3.15;;;;;;;19.72;53.58;95277.19;5025459;28;20120;-81
2023/06/08 00:52:58;;;;;;;6.90;3.20;;;;;;;19.71;53.61;95279.06;5033087;28;20452;-81
2023/06/08 00:55:24;;;;;;;6.25;3.33;;;;;;;19.26;53.64;95211.66;5032312;28;20220;-80
2023/06/08 00:57:53;;;;;;;7.22;3.60;;;;;;;19.58;53.49;95255.91;5025205;28;20647;-81
2023/06/08 01:00:20;;;;;;;12.50;3.38;;;;;;;19.45;53.77;95252.34;5022630;28;20116;-81
2023/06/08 01:02:47;;;;;;;5.72;3.13;;;;;;;19.62;53.44;95272.97;5025510;28;20025;-81
2023/06/08 01:05:16;;;;;;;6.55;3.20;;;;;;;19.64;53.68;95276.91;5044935;28;20072;-81
2023/06/08 01:07:57;;;;;;;8.68;3.20;;;;;;;19.62;53.88;95271.06;5035006;28;20475;-81
2023/06/08 01:10:29;;;;;;;;;;;;;;;19.55;53.98;95281.56;5026228;28;20122;-81
2023/06/08 01:13:21;;;;;;;11.73;3.15;;;;;;;19.21;53.88;95236.06;5034613;28;19925;-81
2023/06/08 01:15:51;;;;;;;5.63;3.42;;;;;;;19.21;54.52;95260.25;5035049;28;20066;-81
2023/06/08 01:18:23;;;;;;;5.93;2.95;;;;;;;19.01;54.33;95224.16;5034878;28;20052;-81
2023/06/08 01:21:14;;;;;;;5.85;3.25;;;;;;;19.37;54.35;95272.03;5036549;28;20455;-81
2023/06/08 01:24:15;;;;;;;17.50;3.70;;;;;;;19.32;54.51;95274.09;5027571;28;20637;-81
2023/06/08 01:26:43;;;;;;;7.75;2.80;;;;;;;19.14;54.21;95244.66;5051123;28;20094;-82
2023/06/08 01:29:11;;;;;;;11.68;3.50;;;;;;;19.18;54.60;95261.69;5051707;28;20068;-82
2023/06/08 01:31:37;;;;;;;11.32;3.53;;;;;;;18.95;54.59;95224.66;5033744;28;20521;-82
2023/06/08 01:34:08;;;;;;;5.95;3.10;;;;;;;19.09;54.48;95242.13;5032894;28;20033;-82
2023/06/08 01:36:51;;;;;;;7.35;3.47;;;;;;;19.30;54.75;95271.72;5033161;28;20518;-81
2023/06/08 01:39:37;;;;;;;6.57;2.80;;;;;;;19.25;54.92;95274.63;5051371;28;20037;-82
2023/06/08 01:42:05;;;;;;;4.95;3.03;;;;;;;19.08;54.58;95243.25;5025449;28;20091;-82
2023/06/08 01:44:36;;;;;;;6.28;3.08;;;;;;;18.94;54.89;95229.25;5029178;28;20131;-82
2023/06/08 01:47:04;;;;;;;6.13;3.13;;;;;;;19.18;54.76;95264.38;5044102;28;20117;-82
2023/06/08 01:49:30;;;;;;;14.90;4.10;;;;;;;19.10;55.03;95250.97;5014098;28;20040;-82
2023/06/08 01:51:56;;;;;;;11.63;3.38;;;;;;;18.88;55.33;95235.94;5031585;28;20041;-82
2023/06/08 01:54:22;;;;;;;6.25;3.28;;;;;;;18.93;55.04;95243.78;5042577;28;20080;-82
2023/06/08 01:56:48;;;;;;;7.90;3.17;;;;;;;19.07;54.96;95259.72;5024577;28;20057;-82
2023/06/08 01:59:13;;;;;;;8.90;3.70;;;;;;;18.98;54.96;95240.94;5047526;28;20400;-82
2023/06/08 02:01:39;;;;;;;7.47;3.63;;;;;;;18.52;55.25;95172.72;5046344;28;20064;-82
2023/06/08 02:04:05;;;;;;;11.13;3.53;;;;;;;18.98;55.17;95251.69;5038000;28;20585;-82
2023/06/08 02:06:30;;;;;;;5.20;3.08;;;;;;;19.12;55.23;95268.38;5051527;28;20112;-82
2023/06/08 02:08:57;;;;;;;7.18;3.15;;;;;;;18.90;55.14;95236.41;5052159;28;20067;-82
2023/06/08 02:11:22;;;;;;;9.18;3.15;;;;;;;18.70;55.17;95210.25;5051471;28;20483;-82
2023/06/08 02:13:49;;;;;;;9.25;3.33;;;;;;;19.06;55.26;95266.19;5051683;28;20036;-82
2023/06/08 02:16:14;;;;;;;8.38;3.50;;;;;;;18.60;55.44;95192.63;5033464;28;20037;-82
2023/06/08 02:18:42;;;;;;;6.85;3.67;;;;;;;19.02;55.47;95259.88;5024955;28;20086;-82
2023/06/08 02:21:08;;;;;;;7.90;3.78;;;;;;;18.51;55.19;95187.25;5033040;28;20044;-82
2023/06/08 02:23:34;;;;;;;7.85;3.40;;;;;;;18.91;55.59;95262.16;5031176;28;20043;-82
2023/06/08 02:26:00;;;;;;;5.80;3.50;;;;;;;18.72;55.47;95235.69;5032276;28;20028;-82
2023/06/08 02:28:25;;;;;;;6.95;3.17;;;;;;;18.78;55.23;95247.03;5032765;28;20037;-82
2023/06/08 02:30:51;;;;;;;4.93;3.05;;;;;;;18.03;55.46;95138.47;5034067;28;20036;-83
2023/06/08 02:33:16;;;;;;;7.05;3.75;;;;;;;18.69;55.58;95243.63;5024725;28;20063;-83
2023/06/08 02:35:42;;;;;;;7.35;3.25;;;;;;;18.72;55.52;95237.59;5051481;28;20036;-83
2023/06/08 02:38:07;;;;;;;13.45;4.47;;;;;;;18.56;55.54;95215.84;5032725;28;20029;-83
2023/06/08 02:40:33;;;;;;;8.02;4.15;;;;;;;18.73;55.49;95241.84;5034660;28;20423;-83
2023/06/08 02:42:59;;;;;;;10.05;3.45;;;;;;;18.43;55.26;95188.06;5015733;28;20485;-83
2023/06/08 02:45:25;;;;;;;6.00;3.40;;;;;;;18.77;55.41;95253.50;5021570;28;20094;-82
2023/06/08 02:47:50;;;;;;;5.47;3.30;;;;;;;18.47;55.44;95205.09;5041002;28;20499;-82
2023/06/08 02:50:16;;;;;;;12.48;3.45;;;;;;;18.80;55.42;95260.94;5030948;28;20123;-82
2023/06/08 02:52:42;;;;;;;9.38;3.20;;;;;;;18.79;55.26;95256.66;5035990;28;20102;-83
2023/06/08 02:55:07;;;;;;;8.27;3.95;;;;;;;18.38;55.46;95203.59;5051267;28;20036;-83
2023/06/08 02:57:34;;;;;;;12.25;3.45;;;;;;;18.19;55.41;95187.84;5033142;28;20158;-83
2023/06/08 02:59:59;;;;;;;8.90;3.63;;;;;;;18.63;55.42;95248.38;5051179;28;20414;-82
2023/06/08 03:02:27;;;;;;;8.25;3.05;;;;;;;18.54;55.49;95238.75;5023797;28;20029;-83
2023/06/08 03:04:53;;;;;;;13.68;3.15;;;;;;;18.47;55.33;95225.78;5030694;28;20045;-82
2023/06/08 03:07:18;;;;;;;7.50;3.33;;;;;;;18.29;55.37;95200.94;5030787;28;20792;-83
2023/06/08 03:09:44;;;;;;;10.95;3.95;;;;;;;18.31;55.64;95209.44;5030294;28;20060;-83
2023/06/08 03:12:12;;;;;;;5.50;3.42;;;;;;;18.47;55.77;95240.00;5017951;28;20514;-82
2023/06/08 03:14:40;;;;;;;7.25;3.35;;;;;;;18.29;55.77;95208.97;5017734;28;20095;-83
2023/06/08 03:17:07;;;;;;;10.50;4.43;;;;;;;18.49;55.51;95232.44;5040430;28;20471;-83
2023/06/08 03:19:32;;;;;;;8.80;3.97;;;;;;;18.44;55.44;95234.50;5050703;28;20036;-83
2023/06/08 03:22:04;;;;;;;9.98;3.47;;;;;;;18.66;55.53;95276.50;5032134;28;20037;-83
2023/06/08 03:24:33;;;;;;;17.10;4.03;;;;;;;18.60;55.30;95257.09;5041648;28;20403;-83
2023/06/08 03:26:59;;;;;;;10.82;3.92;;;;;;;18.70;55.34;95274.72;5023962;28;20099;-83
2023/06/08 03:29:25;;;;;;;11.30;3.53;;;;;;;18.49;55.23;95240.50;5025248;28;20518;-83
2023/06/08 03:31:51;;;;;;;12.18;3.55;;;;;;;18.32;55.49;95207.53;5050372;28;20063;-82
2023/06/08 03:34:18;;;;;;;10.75;3.22;;;;;;;18.52;55.53;95247.13;5032712;28;20033;-83
2023/06/08 03:36:44;;;;;;;11.93;3.63;;;;;;;18.38;55.41;95225.06;5033171;28;20064;-83
2023/06/08 03:39:10;;;;;;;9.50;3.53;;;;;;;18.51;55.34;95238.28;5023144;28;20029;-83
2023/06/08 03:41:35;;;;;;;10.90;3.90;;;;;;;18.61;55.38;95266.72;5050879;28;20037;-82
2023/06/08 03:44:01;;;;;;;6.78;4.00;;;;;;;18.20;55.12;95199.38;5022529;28;20056;-83
2023/06/08 03:46:27;;;;;;;13.52;4.53;;;;;;;18.49;54.91;95239.69;5016613;28;20070;-83
2023/06/08 03:48:53;;;;;;;12.52;3.90;;;;;;;18.69;55.19;95282.00;5030658;28;20498;-82
2023/06/08 03:51:21;;;;;;;12.23;3.50;;;;;;;18.50;55.17;95252.81;5031778;28;20102;-82
2023/06/08 03:53:46;;;;;;;15.52;4.22;;;;;;;18.58;55.03;95261.19;5024532;28;20471;-82
2023/06/08 03:56:12;;;;;;;11.80;4.03;;;;;;;18.56;55.26;95272.25;5040738;28;20060;-82
2023/06/08 03:58:38;;;;;;;9.30;4.05;;;;;;;18.44;55.24;95248.72;5035983;28;20029;-82
2023/06/08 04:01:04;;;;;;;5.78;3.65;;;;;;;18.69;55.49;95289.28;5044176;28;20040;-82
2023/06/08 04:03:30;;;;;;;12.95;3.60;;;;;;;18.41;55.25;95246.69;5015360;28;20057;-82
2023/06/08 04:05:56;;;;;;;9.40;4.03;;;;;;;18.43;55.37;95232.94;5047599;28;20051;-82
2023/06/08 04:08:22;;;;;;;11.30;4.07;;;;;;;18.12;55.42;95200.97;5034639;28;20029;-81
2023/06/08 04:10:48;;;;;;;7.25;3.38;;;;;;;18.29;55.49;95217.03;5034043;28;20029;-80
2023/06/08 04:13:13;;;;;;;6.75;4.30;;;;;;;18.74;55.57;95281.03;5034682;28;20128;-82
2023/06/08 04:15:39;;;;;;;11.68;3.45;;;;;;;18.72;55.43;95283.25;5051295;28;20036;-82
2023/06/08 04:18:05;;;;;;;14.63;4.20;;;;;;;18.34;55.47;95216.84;5016202;28;20041;-80
2023/06/08 04:20:32;;;;;;;7.25;3.25;;;;;;;18.16;55.40;95180.41;5044206;28;20041;-81
2023/06/08 04:22:58;;;;;;;13.88;4.35;;;;;;;18.73;55.33;95269.50;5027772;28;20469;-80
2023/06/08 04:25:25;;;;;;;8.55;3.90;;;;;;;18.86;55.61;95283.81;5030239;28;20130;-81
2023/06/08 04:27:52;;;;;;;10.98;3.88;;;;;;;18.86;55.51;95286.50;5030403;28;20051;-82
2023/06/08 04:30:18;;;;;;;11.02;3.95;;;;;;;18.57;55.77;95238.13;5039831;28;20040;-81
2023/06/08 04:32:44;;;;;;;14.27;4.30;;;;;;;18.91;55.67;95294.41;5019710;28;20057;-81
2023/06/08 04:35:10;;;;;;;11.95;4.60;;;;;;;18.71;55.39;95252.13;5029878;28;20068;-82
2023/06/08 04:37:35;;;;;;;7.20;3.95;;;;;;;18.96;55.36;95280.78;5018503;28;20037;-82
2023/06/08 04:40:04;;;;;;;8.43;4.28;;;;;;;18.42;55.50;95199.13;5021495;28;20445;-81
2023/06/08 04:42:32;;;;;;;14.27;4.70;;;;;;;18.87;55.53;95274.66;5038334;28;20033;-81
2023/06/08 04:45:00;;;;;;;12.07;4.07;;;;;;;18.58;55.36;95218.22;5019132;28;20342;-81
2023/06/08 04:47:29;;;;;;;8.73;4.07;;;;;;;19.06;54.93;95283.13;5035409;28;20108;-81
2023/06/08 04:49:56;;;;;;;7.20;4.20;;;;;;;18.89;54.87;95267.84;5035491;28;20616;-81
2023/06/08 04:52:22;;;;;;;8.73;4.00;;;;;;;18.97;54.93;95273.50;5015120;28;20124;-82
2023/06/08 04:54:52;;;;;;;5.82;3.63;;;;;;;19.09;54.66;95287.81;5017948;28;20417;-81
2023/06/08 04:57:19;;;;;;;14.93;4.03;;;;;;;18.89;55.05;95281.28;5037587;28;20586;-81
2023/06/08 04:59:45;;;;;;;8.68;3.78;;;;;;;18.97;54.65;95273.50;5039340;28;20432;-80
2023/06/08 05:02:10;;;;;;;8.75;3.88;;;;;;;18.85;54.49;95258.84;5025187;28;20102;-82
2023/06/08 05:04:36;;;;;;;8.05;4.10;;;;;;;18.74;54.40;95230.00;5026221;28;20089;-82
2023/06/08 05:07:01;;;;;;;8.82;3.50;;;;;;;18.71;54.23;95219.88;5036403;28;20026;-83
2023/06/08 05:09:27;;;;;;;7.35;3.63;;;;;;;18.62;54.18;95203.00;5042478;28;20103;-82
2023/06/08 05:11:52;;;;;;;13.00;3.65;;;;;;;19.07;54.30;95271.22;5019207;28;20361;-83
2023/06/08 05:14:18;;;;;;;6.05;3.25;;;;;;;18.88;54.42;95249.38;5019744;28;20029;-81
2023/06/08 05:16:43;;;;;;;10.57;4.80;;;;;;;18.50;54.22;95185.69;5018914;28;20487;-81
2023/06/08 05:19:08;;;;;;;8.68;4.00;;;;;;;19.20;54.03;95288.25;5024857;28;20090;-82
2023/06/08 05:21:40;;;;;;;14.30;3.80;;;;;;;18.79;54.13;95219.06;5035049;28;20673;-82
2023/06/08 05:24:06;;;;;;;8.07;4.35;;;;;;;18.88;54.14;95233.25;5027730;28;20037;-82
2023/06/08 05:26:32;;;;;;;18.38;4.63;;;;;;;19.18;54.63;95277.03;5022793;28;20037;-84
2023/06/08 05:28:58;;;;;;;10.82;3.88;;;;;;;19.23;54.37;95277.63;5022872;28;20110;-83
2023/06/08 05:31:24;;;;;;;6.97;3.20;;;;;;;18.60;53.95;95168.44;5022621;28;20041;-82
2023/06/08 05:33:49;;;;;;;9.65;3.63;;;;;;;19.07;53.74;95251.66;5041622;28;20040;-83
2023/06/08 05:36:15;;;;;;;12.90;3.53;;;;;;;19.44;54.02;95290.31;5014476;28;20044;-81
2023/06/08 05:38:40;;;;;;;11.73;3.30;;;;;;;19.47;53.86;95303.13;5045581;28;20032;-82
2023/06/08 05:41:06;;;;;;;12.13;3.85;;;;;;;19.38;53.65;95281.63;5019823;28;20033;-82
2023/06/08 05:43:32;;;;;;;9.90;3.80;;;;;;;19.04;53.54;95223.50;5032811;28;20114;-83
2023/06/08 05:45:57;;;;;;;12.15;3.67;;;;;;;19.52;54.00;95298.38;5015997;28;20037;-82
2023/06/08 05:48:23;;;;;;;12.60;3.95;;;;;;;19.12;53.98;95235.31;5044030;28;20037;-85
2023/06/08 05:50:49;;;;;;;8.02;3.45;;;;;;;19.59;53.94;95295.94;5020527;28;20424;-87
2023/06/08 05:53:14;;;;;;;9.13;3.55;;;;;;;19.53;53.91;95285.72;5022992;28;20037;-81
2023/06/08 05:55:41;;;;;;;9.45;3.28;;;;;;;19.44;53.30;95283.06;5034588;28;20965;-81
2023/06/08 05:58:07;;;;;;;9.88;3.83;;;;;;;19.25;53.57;95229.69;5031716;28;20037;-81
2023/06/08 06:00:33;;;;;;;9.25;3.90;;;;;;;19.46;53.41;95251.22;5024104;28;20678;-80
2023/06/08 06:02:59;;;;;;;12.98;3.72;;;;;;;19.16;52.62;95220.91;5017380;28;20044;-81
2023/06/08 06:05:24;;;;;;;7.50;3.70;;;;;;;19.51;52.59;95261.81;5017736;28;20053;-81
2023/06/08 06:07:50;;;;;;;13.60;4.35;;;;;;;19.54;52.93;95263.84;5017509;28;20036;-80
2023/06/08 06:10:15;;;;;;;8.60;4.05;;;;;;;19.55;52.97;95278.09;5023013;28;20128;-81
2023/06/08 06:12:41;;;;;;;6.78;3.35;;;;;;;19.64;52.82;95271.53;5020692;28;20047;-81
2023/06/08 06:15:07;;;;;;;6.45;3.40;;;;;;;19.62;52.60;95262.22;5036825;28;20033;-80
2023/06/08 06:17:32;;;;;;;11.52;5.15;;;;;;;19.55;52.46;95261.94;5018982;28;20035;-81
2023/06/08 06:19:58;;;;;;;18.42;4.72;;;;;;;19.72;52.25;95258.34;5019521;28;20516;-80
2023/06/08 06:22:23;;;;;;;10.55;3.92;;;;;;;20.00;52.75;95294.34;5036054;28;20037;-81
2023/06/08 06:24:49;;;;;;;11.93;3.70;;;;;;;19.71;52.35;95232.53;5038546;28;20491;-81
2023/06/08 06:27:14;;;;;;;12.10;3.40;;;;;;;19.72;51.75;95234.13;5038772;28;20029;-81
2023/06/08 06:29:40;;;;;;;10.57;3.60;;;;;;;20.14;51.00;95288.72;5013972;28;20139;-80
2023/06/08 06:32:06;;;;;;;12.43;3.55;;;;;;;20.06;51.04;95274.22;5021360;28;20033;-80
2023/06/08 06:34:32;;;;;;;11.02;4.07;;;;;;;20.02;51.30;95278.66;5037951;28;20032;-83
2023/06/08 06:36:57;;;;;;;10.65;3.38;;;;;;;19.57;51.57;95211.31;5014728;28;20048;-81
2023/06/08 06:39:22;;;;;;;10.73;3.70;;;;;;;19.85;51.75;95268.81;5036976;28;20114;-81
2023/06/08 06:41:48;;;;;;;11.57;4.07;;;;;;;19.87;51.82;95252.34;5036357;28;20039;-81
2023/06/08 06:44:14;;;;;;;10.00;4.05;;;;;;;20.14;52.16;95272.56;5035604;28;20100;-80
2023/06/08 06:46:40;;;;;;;9.23;3.42;;;;;;;19.77;51.48;95194.34;5034973;28;20131;-80
2023/06/08 06:49:06;;;;;;;10.00;4.07;;;;;;;20.24;51.50;95254.06;5012272;28;20540;-82
2023/06/08 06:51:31;;;;;;;12.52;4.25;;;;;;;19.90;52.19;95209.44;5037800;28;20167;-81
2023/06/08 06:53:57;;;;;;;14.35;4.07;;;;;;;19.34;51.71;95099.78;5020902;28;20037;-82
2023/06/08 06:56:22;;;;;;;10.43;4.22;;;;;;;20.48;51.18;95266.84;5037202;28;20078;-82
2023/06/08 06:58:49;;;;;;;18.30;5.25;;;;;;;20.18;50.83;95223.06;5035318;28;20033;-82
2023/06/08 07:01:18;;;;;;;16.55;7.00;;;;;;;20.29;50.83;95218.06;5040784;28;20029;-82
2023/06/08 07:03:44;;;;;;;14.68;4.85;;;;;;;20.02;50.72;95171.78;5017356;28;20593;-82
2023/06/08 07:06:10;;;;;;;11.32;4.40;;;;;;;20.29;50.24;95197.28;5019849;28;21033;-81
2023/06/08 07:08:36;;;;;;;15.70;4.35;;;;;;;20.27;50.16;95179.91;5016646;28;20040;-82
2023/06/08 07:11:02;;;;;;;11.18;4.43;;;;;;;20.55;50.34;95215.09;5023327;28;20103;-81
2023/06/08 07:13:28;;;;;;;15.95;4.78;;;;;;;20.72;50.10;95218.38;5011327;28;20083;-83
2023/06/08 07:15:54;;;;;;;10.13;4.68;;;;;;;20.57;49.73;95183.22;5040458;28;20050;-81
2023/06/08 07:18:19;;;;;;;6.18;3.50;;;;;;;20.68;49.39;95195.09;5029403;28;20033;-81
2023/06/08 07:20:45;;;;;;;13.52;4.13;;;;;;;20.72;49.15;95196.03;5034514;28;20021;-81
2023/06/08 07:23:11;;;;;;;13.27;4.35;;;;;;;21.08;49.87;95231.03;5039886;28;20163;-82
2023/06/08 07:25:38;;;;;;;11.90;4.18;;;;;;;21.01;50.01;95214.66;5034032;28;20059;-83
2023/06/08 07:28:05;;;;;;;12.38;4.30;;;;;;;21.26;49.42;95244.31;5035121;28;20642;-82
2023/06/08 07:30:31;;;;;;;14.95;4.05;;;;;;;21.04;49.31;95205.09;5013777;28;20060;-82
2023/06/08 07:32:59;;;;;;;17.10;4.25;;;;;;;21.27;49.41;95227.81;5024705;28;20120;-82
2023/06/08 07:35:24;;;;;;;16.50;4.40;;;;;;;21.09;48.80;95202.97;5019216;28;20186;-82
2023/06/08 07:37:50;;;;;;;9.50;4.13;;;;;;;21.45;48.78;95225.63;5018846;28;20037;-82
2023/06/08 07:40:17;;;;;;;13.30;3.97;;;;;;;21.59;49.42;95239.53;5019088;28;20090;-82
2023/06/08 07:42:43;;;;;;;12.32;4.68;;;;;;;21.65;50.04;95240.09;5030018;28;20026;-82
2023/06/08 07:45:09;;;;;;;12.60;4.30;;;;;;;21.44;50.44;95215.94;5019026;28;20514;-83
2023/06/08 07:47:34;;;;;;;8.20;4.13;;;;;;;21.70;50.48;95229.03;5038731;28;20125;-81
2023/06/08 07:50:00;;;;;;;15.27;3.70;;;;;;;21.55;50.25;95190.06;5025372;28;20113;-81
2023/06/08 07:52:25;;;;;;;11.63;3.42;;;;;;;21.07;49.97;95110.84;5035453;28;20551;-81
2023/06/08 07:54:51;;;;;;;9.63;4.15;;;;;;;21.62;48.88;95173.28;5030775;28;20143;-81
2023/06/08 07:57:18;;;;;;;12.10;4.72;;;;;;;21.77;50.82;95208.44;5018242;28;20029;-82
2023/06/08 07:59:44;;;;;;;14.38;4.63;;;;;;;21.89;51.04;95221.88;5034059;28;20530;-81
2023/06/08 08:02:09;;;;;;;14.32;4.40;;;;;;;21.90;50.72;95206.47;5011621;28;20079;-81
2023/06/08 08:04:35;;;;;;;8.20;3.67;;;;;;;22.07;50.75;95230.50;5021989;28;20072;-81
2023/06/08 08:07:01;;;;;;;9.00;3.90;;;;;;;22.01;50.03;95199.47;5019943;28;20659;-82
2023/06/08 08:09:26;;;;;;;10.18;4.50;;;;;;;21.94;50.31;95207.34;5021144;28;20125;-81
2023/06/08 08:11:52;;;;;;;11.85;4.28;;;;;;;21.92;49.29;95180.69;5023263;28;20105;-81
2023/06/08 08:14:17;;;;;;;10.55;4.55;;;;;;;21.94;49.91;95166.84;5020737;28;20033;-82
2023/06/08 08:16:43;;;;;;;13.57;4.00;;;;;;;22.47;50.33;95229.63;5026973;28;20033;-81
2023/06/08 08:19:08;;;;;;;8.55;3.83;;;;;;;22.20;49.09;95196.13;5024912;28;20079;-82
2023/06/08 08:21:34;;;;;;;9.18;4.18;;;;;;;22.42;49.41;95219.06;5026531;28;20113;-81
2023/06/08 08:24:00;;;;;;;10.70;4.72;;;;;;;22.39;49.28;95212.44;5042585;28;20037;-81
2023/06/08 08:26:25;;;;;;;5.95;3.60;;;;;;;22.48;50.12;95210.34;5025248;28;20028;-81
2023/06/08 08:28:51;;;;;;;11.45;3.95;;;;;;;22.33;49.55;95165.97;5023706;28;20039;-81
2023/06/08 08:31:16;;;;;;;18.85;6.43;;;;;;;22.37;49.75;95189.59;5024166;28;20485;-81
2023/06/08 08:33:43;;;;;;;10.65;4.82;;;;;;;22.56;50.10;95192.41;5035493;28;20132;-81
2023/06/08 08:36:08;;;;;;;19.92;8.18;;;;;;;22.59;51.05;95186.28;5021123;28;20582;-82
2023/06/08 08:38:34;;;;;;;12.07;5.65;;;;;;;22.77;50.10;95186.75;5025058;28;20021;-81
2023/06/08 08:41:09;;;;;;;10.02;5.25;;;;;;;22.77;49.90;95173.22;5015798;28;20027;-82
2023/06/08 08:43:41;;;;;;;14.73;5.93;;;;;;;22.57;49.62;95134.50;5023695;28;20106;-82
2023/06/08 08:46:07;;;;;;;16.40;4.55;;;;;;;22.76;48.23;95169.72;5043956;28;20031;-81
2023/06/08 08:48:38;;;;;;;14.18;4.72;;;;;;;22.92;48.13;95175.13;5044019;28;20209;-82
2023/06/08 08:51:05;;;;;;;12.80;4.97;;;;;;;22.92;48.53;95178.63;5025726;28;20371;-81
2023/06/08 08:53:33;;;;;;;12.43;4.05;;;;;;;23.00;49.23;95184.97;5027498;28;20071;-81
2023/06/08 08:55:59;;;;;;;14.30;4.63;;;;;;;23.08;49.51;95181.28;5023585;28;20037;-81
2023/06/08 08:58:25;;;;;;;8.48;4.47;;;;;;;23.17;49.78;95175.69;5023873;28;20104;-82
2023/06/08 09:00:51;;;;;;;7.50;4.05;;;;;;;23.19;49.46;95168.00;5042518;28;20037;-82
2023/06/08 09:03:17;;;;;;;9.65;4.63;;;;;;;23.25;50.40;95197.13;5020964;28;20040;-82
2023/06/08 09:05:44;;;;;;;7.80;3.90;;;;;;;23.37;49.56;95182.69;5023628;28;20025;-82
2023/06/08 09:08:11;;;;;;;10.18;4.10;;;;;;;22.92;48.70;95138.06;5021561;28;20045;-82
2023/06/08 09:10:36;;;;;;;7.10;4.03;;;;;;;23.39;48.61;95197.44;5042734;28;20086;-82
2023/06/08 09:13:02;;;;;;;6.57;3.92;;;;;;;23.35;48.54;95187.66;5019603;28;20455;-82
2023/06/08 09:15:33;;;;;;;10.93;4.55;;;;;;;23.39;47.97;95183.91;5020883;28;20419;-82
2023/06/08 09:18:02;;;;;;;;;;;;;;;23.52;47.15;95183.78;5044794;28;20475;-84
2023/06/08 09:20:32;;;;;;;12.30;4.50;;;;;;;23.50;47.39;95181.44;5027643;28;19924;-84
2023/06/08 09:22:59;;;;;;;9.20;4.65;;;;;;;22.86;47.96;95088.09;5024472;28;20127;-85
2023/06/08 09:25:36;;;;;;;10.95;4.28;;;;;;;23.36;49.06;95152.13;5047273;28;20040;-84
2023/06/08 09:28:16;;;;;;;7.53;3.90;;;;;;;23.68;48.96;95185.31;5026533;28;20029;-82
2023/06/08 09:30:43;;;;;;;6.82;3.65;;;;;;;23.31;47.66;95114.53;5044198;28;20074;-81
2023/06/08 09:33:25;;;;;;;7.45;4.00;;;;;;;23.80;46.88;95182.44;5026677;28;20044;-81
2023/06/08 09:35:57;;;;;;;10.15;4.32;;;;;;;23.81;46.11;95183.22;5029789;28;20611;-82
2023/06/08 09:38:25;;;;;;;7.82;4.10;;;;;;;23.81;45.89;95156.94;5030305;28;20568;-81
2023/06/08 09:40:51;;;;;;;7.47;3.67;;;;;;;24.13;46.88;95181.91;5034958;28;20467;-82
2023/06/08 09:43:31;;;;;;;6.70;3.20;;;;;;;24.63;45.08;95169.25;5040212;28;20101;-81
2023/06/08 09:45:57;;;;;;;6.70;3.42;;;;;;;25.22;42.85;95146.91;5024086;28;20056;-82
2023/06/08 09:48:22;;;;;;;6.80;3.10;;;;;;;26.54;40.56;95162.81;5023450;28;20028;-82
2023/06/08 09:50:47;;;;;;;5.05;3.58;;;;;;;26.94;39.46;95145.63;5014169;28;20086;-82
2023/06/08 09:53:15;;;;;;;5.78;3.30;;;;;;;27.94;38.71;95166.00;5036415;28;20500;-82
2023/06/08 09:55:43;;;;;;;5.57;3.55;;;;;;;28.44;36.86;95169.66;5038990;28;20128;-82
2023/06/08 09:58:10;;;;;;;6.40;3.50;;;;;;;29.04;35.57;95152.53;5043293;28;20044;-81
2023/06/08 10:00:38;;;;;;;10.27;3.30;;;;;;;29.81;35.27;95162.50;5029562;28;20151;-82
2023/06/08 10:03:28;;;;;;;3.53;3.08;;;;;;;30.17;34.43;95137.72;5043592;28;20126;-83
2023/06/08 10:05:57;;;;;;;7.47;2.67;;;;;;;30.65;33.56;95127.66;5048253;28;20071;-82
2023/06/08 10:08:26;;;;;;;5.45;2.90;;;;;;;31.20;32.85;95147.94;5024226;28;20648;-83
2023/06/08 10:10:51;;;;;;;6.78;2.83;;;;;;;31.24;33.02;95119.31;5042500;28;20349;-83
2023/06/08 10:13:18;;;;;;;16.10;3.45;;;;;;;31.11;32.70;95046.28;5024985;28;20041;-84
2023/06/08 10:15:44;;;;;;;6.45;3.47;;;;;;;31.85;32.56;95119.41;5027912;28;20063;-83
2023/06/08 10:18:10;;;;;;;11.23;3.17;;;;;;;32.31;31.02;95140.75;5037377;28;20112;-81
2023/06/08 10:20:36;;;;;;;7.55;2.90;;;;;;;32.25;30.72;95100.47;5013415;28;20064;-82
2023/06/08 10:23:03;;;;;;;7.05;2.92;;;;;;;32.33;31.39;95112.88;5014413;28;20048;-80
2023/06/08 10:25:30;;;;;;;9.15;3.25;;;;;;;32.51;28.93;95113.38;5018895;28;20040;-81
2023/06/08 10:28:06;;;;;;;6.47;4.05;;;;;;;32.45;28.67;95079.38;5021673;28;20499;-81
2023/06/08 10:30:39;;;;;;;4.22;3.45;;;;;;;32.16;29.03;95117.44;5019880;28;20077;-82
2023/06/08 10:33:10;;;;;;;8.43;2.80;;;;;;;32.43;29.95;95122.91;5036740;28;20039;-82
2023/06/08 10:35:42;;;;;;;9.18;3.17;;;;;;;32.34;29.62;95092.50;5020804;28;20033;-82
2023/06/08 10:38:09;;;;;;;12.50;3.97;;;;;;;32.33;29.10;95104.66;5015501;28;20037;-81
2023/06/08 10:40:41;;;;;;;7.93;2.92;;;;;;;32.11;28.49;95115.91;5038437;28;20020;-81
2023/06/08 10:43:10;;;;;;;6.78;3.33;;;;;;;32.29;29.33;95114.91;5020224;28;20045;-81
2023/06/08 10:45:37;;;;;;;8.57;2.83;;;;;;;32.24;29.28;95096.16;5036647;28;20475;-81
2023/06/08 10:48:34;;;;;;;4.88;2.80;;;;;;;32.17;30.37;95117.03;5018187;28;20029;-81
2023/06/08 10:51:03;;;;;;;4.13;2.53;;;;;;;32.27;29.91;95103.56;5017927;28;20041;-80
2023/06/08 10:53:56;;;;;;;8.30;2.67;;;;;;;32.07;30.96;95067.75;5020504;28;20025;-81
2023/06/08 10:56:25;;;;;;;5.72;3.20;;;;;;;31.99;31.48;95069.84;5031472;28;20055;-80
2023/06/08 10:58:51;;;;;;;7.85;2.75;;;;;;;32.10;29.32;95075.97;5035890;28;20036;-81
2023/06/08 11:01:19;;;;;;;4.85;2.60;;;;;;;32.24;29.50;95069.50;5015961;28;20033;-80
2023/06/08 11:03:47;;;;;;;6.78;2.80;;;;;;;32.40;29.69;95066.91;5040420;28;20052;-80
2023/06/08 11:06:15;;;;;;;6.65;3.35;;;;;;;32.56;28.96;95052.53;5038617;28;20094;-80
2023/06/08 11:08:41;;;;;;;4.68;2.78;;;;;;;32.64;27.92;95067.69;5020907;28;20095;-80
2023/06/08 11:11:10;;;;;;;4.60;2.38;;;;;;;32.46;28.23;95043.28;5032565;28;20419;-80
2023/06/08 11:13:35;;;;;;;7.75;3.40;;;;;;;32.44;28.67;95034.66;5034542;28;20041;-80
2023/06/08 11:16:01;;;;;;;5.43;2.78;;;;;;;32.70;28.36;95068.78;5037404;28;20043;-80
2023/06/08 11:18:29;;;;;;;6.30;2.70;;;;;;;32.80;28.99;95037.63;5018311;28;20148;-79
2023/06/08 11:20:58;;;;;;;4.95;2.70;;;;;;;33.03;29.10;95045.06;5016211;28;20025;-79
2023/06/08 11:23:24;;;;;;;5.80;2.45;;;;;;;33.31;28.72;95035.50;5011647;28;20040;-79
2023/06/08 11:25:49;;;;;;;5.43;2.88;;;;;;;33.36;27.73;95012.22;5038060;28;20037;-80
2023/06/08 11:28:15;;;;;;;6.78;3.05;;;;;;;33.48;28.74;94984.13;5019925;28;20577;-81
2023/06/08 11:30:40;;;;;;;5.95;2.83;;;;;;;33.81;28.10;95012.47;5039512;28;20503;-80